Aérodrome :
LOGIN :

S'inscrire | Disclaimer

   EN    FR    IT 

 










Légende :    VFR   VFR Marginal   IFR   IFR Intensif   IFR Très Intensif
Visi : 
Plafond : 
>= 8 km
>= 3000ft
5 à 8 km
1000 à 3000 ft
1500m à 5 km
500 à 1000 ft
800 à 1500m
200 à 500 ft
< 800m
< 200 ft
Symboles :   Orages  Brouillard  Fortes neiges  Fortes précipitations  Vent > 20 kt
SIGMETs :   Divers  Orages  Givrage  Turbulence  Onde Orograph.  Cendres Volcan.







- Altitude de l'aérodrome : 157 ft
- Code IATA : LIL
- Voir les cartes d'approche


LFQQ - Lille Lesquin

DERNIER METAR :
  • 220600Z AUTO 26022KT 9999 OVC014 10/08 Q1011 BECMG 25020G30KT

METARs EXPIRÉS :
  • 220530Z AUTO 26022KT 9999 OVC014 10/08 Q1011 BECMG 25020G30KT
  • 220500Z AUTO 26021KT 9999 OVC015 10/08 Q1011 BECMG 25020G30KT OVC013
  • 220430Z AUTO 26022KT 9999 BKN016 OVC022 10/08 Q1011 BECMG 25020G30KT OVC013
  • 220400Z AUTO 26023G33KT 9999 OVC015 10/08 Q1011 TEMPO 3000 -RADZ OVC005
  • 220330Z AUTO 26019KT 9999 OVC014 10/08 Q1012 TEMPO 3000 -RADZ OVC005 BECMG 25020G30KT
  • 220300Z AUTO 26018KT 9999 OVC013 10/08 Q1012 TEMPO 3000 -RADZ OVC005 BECMG 25020G30KT

TAF TAF LFQQ
Valide du 22 à 06h jusqu'au 23 à 12h UTC


220500Z 2206/2312 25020G30KT 9999 OVC016
BECMG 2206/2208 OVC012
TEMPO 2208/2312 3000 RADZ OVC005
TEMPO 2309/2312 22030G40KT
ATIS : +33 3 20 16 19 54
Pas de NOTAMs connus pour ce terrain.
1 SIGMET publié pour la FIR Paris (LFFF) :
 
Turbulence forte
LFFF SIGMET 1 VALID 220300/220700 LFPW
LFFF PARIS FIR/UIR SEV TURB FCST WI N5000 W00015 - N5115 E00200 - N5045 E00315 - N4945 E00145 SFC/FL050 STNR NC=



MET'MAP, la Météo Aéronautique d'un coup d'oeil ! - Copyright ORBIFLY Décembre 2007 - Disclaimer

ORBIFLY MET'MAP TEAM :

Programmation & Développement : Alexandra Zaïnal
Conception & Développement : Baudouin d'Aumeries
Co-Programmation & Développement : Marc-Olivier Méhu
Soutien technique & logistique : Manuel Goepfert

Contact : metmap@orbifly.com




SOURCES & CREDITS :

   NOAA